createdAt,value
2023-02-06T00:08:08.721Z,7.40
2023-02-06T00:13:02.197Z,8.57
2023-02-06T00:17:55.535Z,8.90
2023-02-06T00:38:12.542Z,10.37
2023-02-06T00:43:06.020Z,11.00
2023-02-06T00:47:59.432Z,11.03
2023-02-06T00:52:53.326Z,11.93
2023-02-06T00:57:48.072Z,12.13
2023-02-06T01:02:41.790Z,12.00
2023-02-06T01:07:37.593Z,12.00
2023-02-06T01:12:30.959Z,12.00
2023-02-06T01:17:25.772Z,12.00
2023-02-06T01:22:19.118Z,11.17
2023-02-06T01:27:12.545Z,11.83
2023-02-06T01:32:06.101Z,11.33
2023-02-06T01:37:00.907Z,11.53
2023-02-06T01:41:54.297Z,10.43
2023-02-06T01:46:49.721Z,10.97
2023-02-06T01:51:43.711Z,10.43
2023-02-06T01:56:46.351Z,9.73
2023-02-06T02:01:39.902Z,9.10
2023-02-06T02:06:34.032Z,10.70
2023-02-06T02:11:32.887Z,9.53
2023-02-06T02:37:04.334Z,10.63
2023-02-06T02:42:06.117Z,10.67
2023-02-06T02:47:08.714Z,11.13
2023-02-06T02:52:04.699Z,10.50
2023-02-06T02:57:07.311Z,10.93
2023-02-06T03:02:08.031Z,10.50
2023-02-06T03:07:17.435Z,9.83
2023-02-06T03:12:20.970Z,10.10
2023-02-06T03:17:24.985Z,9.80
2023-02-06T03:22:23.885Z,10.53
2023-02-06T03:27:20.074Z,9.47
2023-02-06T03:32:24.048Z,9.40
2023-02-06T03:37:18.954Z,8.80
2023-02-06T03:42:15.662Z,8.20
2023-02-06T03:47:18.272Z,8.70
2023-02-06T03:52:16.860Z,9.00
2023-02-06T03:57:26.189Z,8.90
2023-02-06T04:02:21.635Z,8.77
2023-02-06T04:07:23.565Z,9.23
2023-02-06T04:12:19.001Z,8.73
2023-02-06T04:17:17.031Z,9.07
2023-02-06T04:22:36.704Z,10.30
2023-02-06T04:27:31.785Z,10.03
2023-02-06T04:32:25.969Z,9.60
2023-02-06T04:57:48.359Z,10.67
2023-02-06T05:02:43.971Z,10.70
2023-02-06T05:07:46.225Z,10.47
2023-02-06T05:12:43.756Z,11.07
2023-02-06T05:17:38.654Z,10.87
2023-02-06T05:22:32.215Z,11.07
2023-02-06T05:27:25.822Z,12.03
2023-02-06T05:32:23.216Z,12.23
2023-02-06T05:52:39.421Z,12.03
2023-02-06T05:58:01.478Z,12.33
2023-02-06T06:02:57.786Z,13.10
2023-02-06T06:07:57.629Z,12.87
2023-02-06T06:13:14.183Z,13.07
2023-02-06T06:18:22.374Z,12.73
2023-02-06T06:23:20.615Z,11.57
2023-02-06T06:28:14.393Z,12.33
2023-02-06T06:33:17.569Z,11.67
2023-02-06T06:38:11.239Z,11.97
2023-02-06T06:43:06.140Z,12.03
2023-02-06T06:47:59.560Z,13.07
2023-02-06T06:52:52.955Z,12.23
2023-02-06T06:57:46.404Z,11.70
2023-02-06T07:02:41.587Z,12.37
2023-02-06T07:07:35.538Z,11.87
2023-02-06T07:12:38.586Z,11.07
2023-02-06T07:17:34.748Z,10.77
2023-02-06T07:22:29.587Z,10.17
2023-02-06T07:27:23.400Z,10.67
2023-02-06T07:32:17.197Z,10.37
2023-02-06T07:37:10.671Z,9.83
2023-02-06T07:42:06.037Z,10.40
2023-02-06T07:46:59.438Z,10.43
2023-02-06T07:51:53.051Z,11.13
2023-02-06T07:56:46.552Z,10.60
2023-02-06T08:01:41.464Z,10.63
2023-02-06T08:06:35.019Z,11.47
2023-02-06T08:11:30.466Z,11.60
2023-02-06T08:16:25.700Z,11.37
2023-02-06T08:21:23.916Z,10.67
2023-02-06T08:26:22.067Z,10.97
2023-02-06T08:31:20.700Z,10.90
2023-02-06T08:36:17.688Z,10.43
2023-02-06T08:41:23.786Z,10.77
2023-02-06T08:51:56.666Z,9.53
2023-02-06T08:56:56.442Z,9.97
2023-02-06T09:01:52.198Z,10.03
2023-02-06T09:06:48.946Z,9.90
2023-02-06T09:11:43.706Z,9.20
2023-02-06T09:16:42.010Z,10.37
2023-02-06T09:21:38.639Z,8.93
2023-02-06T09:26:38.901Z,9.53
2023-02-06T09:31:35.367Z,9.60
2023-02-06T09:36:34.589Z,9.83
2023-02-06T09:41:35.086Z,9.10
2023-02-06T09:46:34.716Z,9.77
2023-02-06T09:52:02.349Z,8.40
2023-02-06T09:57:18.391Z,8.27
2023-02-06T10:02:42.192Z,9.30
2023-02-06T10:08:00.418Z,8.80
2023-02-06T10:13:15.795Z,8.63
2023-02-06T10:18:16.449Z,9.03
2023-02-06T10:23:30.374Z,9.03
2023-02-06T10:28:27.803Z,8.90
2023-02-06T10:39:11.880Z,9.17
2023-02-06T10:44:24.125Z,9.13
2023-02-06T10:49:33.089Z,8.07
2023-02-06T10:54:39.985Z,8.27
2023-02-06T10:59:43.224Z,7.97
2023-02-06T11:05:03.796Z,8.73
2023-02-06T11:10:08.565Z,8.40
2023-02-06T11:15:12.043Z,8.43
2023-02-06T11:20:21.957Z,8.50
2023-02-06T11:25:33.678Z,8.17
2023-02-06T11:30:43.338Z,7.10
2023-02-06T11:35:50.754Z,7.73
2023-02-06T11:41:02.087Z,6.77
2023-02-06T11:46:20.520Z,7.47
2023-02-06T11:56:36.389Z,7.20
2023-02-06T12:01:44.461Z,7.53
2023-02-06T12:17:23.555Z,7.60
2023-02-06T12:22:23.211Z,7.77
2023-02-06T12:27:23.114Z,8.20
2023-02-06T12:32:25.309Z,7.27
2023-02-06T12:37:31.497Z,7.20
2023-02-06T12:42:42.914Z,7.70
2023-02-06T12:47:47.637Z,8.10
2023-02-06T12:52:46.685Z,7.77
2023-02-06T12:57:40.783Z,7.40
2023-02-06T13:03:08.741Z,7.60
2023-02-06T13:08:10.288Z,6.73
2023-02-06T13:13:03.716Z,7.30
2023-02-06T13:17:58.547Z,8.23
2023-02-06T13:22:55.147Z,7.97
2023-02-06T13:27:48.545Z,7.93
2023-02-06T13:32:54.422Z,8.67
2023-02-06T13:38:05.773Z,7.60
2023-02-06T13:43:08.657Z,7.77
2023-02-06T13:48:54.001Z,8.10
2023-02-06T13:54:21.702Z,7.83
2023-02-06T13:59:21.659Z,7.67
2023-02-06T14:04:25.270Z,9.43
2023-02-06T14:10:00.520Z,8.03
2023-02-06T14:15:15.036Z,7.17
2023-02-06T14:20:30.386Z,10.47
2023-02-06T14:25:48.102Z,6.70
2023-02-06T14:30:52.148Z,7.23
2023-02-06T14:36:06.106Z,6.97
2023-02-06T14:41:01.962Z,7.50
2023-02-06T14:46:07.388Z,6.93
2023-02-06T14:51:02.325Z,6.63
2023-02-06T14:56:18.671Z,7.27
2023-02-06T15:01:24.829Z,7.13
2023-02-06T15:06:33.197Z,7.00
2023-02-06T15:11:32.718Z,6.40
2023-02-06T15:16:26.649Z,6.77
2023-02-06T15:21:22.383Z,6.83
2023-02-06T15:26:28.683Z,6.67
2023-02-06T15:31:33.929Z,6.37
2023-02-06T15:36:44.149Z,6.53
2023-02-06T15:41:38.703Z,5.77
2023-02-06T15:46:39.132Z,6.80
2023-02-06T15:51:55.047Z,6.70
2023-02-06T15:56:54.857Z,7.83
2023-02-06T16:01:50.519Z,7.10
2023-02-06T16:06:44.614Z,7.50
2023-02-06T16:11:51.730Z,8.20
2023-02-06T16:22:04.949Z,7.50
2023-02-06T16:26:58.539Z,7.93
2023-02-06T16:32:01.261Z,7.77
2023-02-06T16:36:56.154Z,7.83
2023-02-06T16:41:52.418Z,7.90
2023-02-06T16:46:46.548Z,7.93
2023-02-06T16:51:42.722Z,8.37
2023-02-06T16:56:40.887Z,7.53
2023-02-06T17:01:35.596Z,7.50
2023-02-06T17:06:37.215Z,7.73
2023-02-06T17:11:31.160Z,8.03
2023-02-06T17:16:29.798Z,7.33
2023-02-06T17:21:27.691Z,8.60
2023-02-06T17:26:23.774Z,7.47
2023-02-06T17:31:18.268Z,8.20
2023-02-06T17:36:18.557Z,7.70
2023-02-06T17:41:12.130Z,7.77
2023-02-06T17:46:06.321Z,8.43
2023-02-06T17:50:59.894Z,8.00
2023-02-06T17:55:54.678Z,9.60
2023-02-06T18:00:49.729Z,8.07
2023-02-06T18:05:43.201Z,8.40
2023-02-06T18:10:36.833Z,8.70
2023-02-06T18:15:32.211Z,8.73
2023-02-06T18:20:25.681Z,9.67
2023-02-06T18:25:19.306Z,8.77
2023-02-06T18:30:15.218Z,9.23
2023-02-06T18:40:13.043Z,10.47
2023-02-06T18:45:07.957Z,9.53
2023-02-06T18:56:01.735Z,10.37
2023-02-06T19:00:55.351Z,12.50
2023-02-06T19:05:48.785Z,9.87
2023-02-06T19:10:49.518Z,9.13
2023-02-06T19:15:49.702Z,9.37
2023-02-06T19:20:44.911Z,10.43
2023-02-06T19:25:45.983Z,10.40
2023-02-06T19:30:45.274Z,10.73
2023-02-06T19:35:44.256Z,11.00
2023-02-06T19:40:40.907Z,10.53
2023-02-06T19:45:37.816Z,11.90
2023-02-06T19:50:35.331Z,10.73
2023-02-06T19:55:34.043Z,11.40
2023-02-06T20:00:30.136Z,12.80
2023-02-06T20:05:27.262Z,12.90
2023-02-06T20:10:21.361Z,12.33
2023-02-06T20:15:16.685Z,13.83
2023-02-06T20:20:11.797Z,13.00
2023-02-06T20:25:05.565Z,12.27
2023-02-06T20:29:58.968Z,11.47
2023-02-06T20:34:53.733Z,12.37
2023-02-06T20:39:47.406Z,11.37
2023-02-06T20:44:40.859Z,12.13
2023-02-06T20:49:34.326Z,11.87
2023-02-06T20:54:30.885Z,11.10
2023-02-06T20:59:24.554Z,11.13
2023-02-06T21:04:19.419Z,8.87
2023-02-06T21:09:13.713Z,8.53
2023-02-06T21:14:09.532Z,7.60
2023-02-06T21:19:09.251Z,7.57
2023-02-06T21:24:03.141Z,7.60
2023-02-06T21:28:58.309Z,9.33
2023-02-06T21:33:53.897Z,7.77
2023-02-06T21:38:47.294Z,8.20
2023-02-06T21:43:43.504Z,7.23
2023-02-06T21:48:39.906Z,7.20
2023-02-06T21:53:34.684Z,7.40
2023-02-06T21:58:28.037Z,7.03
2023-02-06T22:03:22.930Z,6.67
2023-02-06T22:08:16.399Z,7.20
2023-02-06T22:13:11.240Z,7.77
2023-02-06T22:18:05.226Z,7.87
2023-02-06T22:22:58.844Z,8.10
2023-02-06T22:27:52.135Z,7.60
2023-02-06T22:32:46.868Z,8.50
2023-02-06T22:37:40.210Z,8.00
2023-02-06T22:42:34.742Z,8.00
2023-02-06T22:47:31.564Z,7.93
2023-02-06T22:52:45.933Z,8.80
2023-02-06T22:57:42.076Z,8.40
2023-02-06T23:02:35.584Z,8.70
2023-02-06T23:07:30.680Z,8.63
2023-02-06T23:12:24.259Z,8.40
2023-02-06T23:17:17.639Z,9.20
2023-02-06T23:22:11.122Z,9.00
2023-02-06T23:27:05.994Z,9.37
2023-02-06T23:31:59.428Z,10.10
2023-02-06T23:36:53.460Z,8.73
2023-02-06T23:41:47.092Z,8.97
2023-02-06T23:46:42.842Z,8.90
2023-02-06T23:51:40.040Z,8.70
2023-02-06T23:56:34.159Z,8.37
